Time;durP1;ratioP1;P1;durP2;ratioP2;P2;SDS_P1;SDS_P2;PMS_P1;PMS_P2;Temp;Humidity;BMP_temperature;BMP_pressure;BME280_temperature;BME280_humidity;BME280_pressure;Samples;Min_cycle;Max_cycle;Signal;HPM_P1;HPM_P2
2022/04/22 00:00:08;;;;;;;6.43;4.83;;;;;;;14.43;44.62;97621.16;7030517;28;20217;-81
2022/04/22 00:03:30;;;;;;;5.77;5.27;;;;;;;13.63;46.60;97603.22;7030134;28;20229;-81
2022/04/22 00:06:53;;;;;;;6.43;5.80;;;;;;;14.27;45.31;97599.59;7029485;28;20215;-81
2022/04/22 00:10:16;;;;;;;7.47;5.80;;;;;;;13.89;46.17;97610.53;7029694;28;20234;-81
2022/04/22 00:13:37;;;;;;;6.07;5.43;;;;;;;14.36;44.99;97590.72;7030253;28;20670;-80
2022/04/22 00:16:59;;;;;;;7.97;6.23;;;;;;;14.12;45.57;97596.69;7034705;28;20232;-81
2022/04/22 00:20:20;;;;;;;7.03;5.67;;;;;;;14.28;45.21;97601.22;7035165;28;20796;-81
2022/04/22 00:23:43;;;;;;;6.70;6.00;;;;;;;14.54;44.64;97600.34;7035167;28;20223;-81
2022/04/22 00:27:05;;;;;;;7.53;5.83;;;;;;;14.27;45.32;97589.53;7034788;28;20199;-81
2022/04/22 00:30:29;;;;;;;6.40;5.73;;;;;;;14.05;45.91;97596.09;7034700;28;20377;-81
2022/04/22 00:33:50;;;;;;;6.80;6.13;;;;;;;13.99;46.09;97599.81;7035520;28;20575;-80
2022/04/22 00:37:12;;;;;;;6.87;5.73;;;;;;;14.25;45.48;97601.72;7033656;28;20228;-81
2022/04/22 00:40:35;;;;;;;8.10;6.73;;;;;;;13.88;46.34;97598.06;7034180;28;20304;-81
2022/04/22 00:43:56;;;;;;;7.17;6.43;;;;;;;13.98;46.36;97593.56;7034882;28;20339;-81
2022/04/22 00:47:18;;;;;;;7.47;6.47;;;;;;;14.07;46.01;97581.22;7033688;28;20285;-81
2022/04/22 00:50:40;;;;;;;7.10;6.40;;;;;;;13.81;46.31;97578.50;7034551;28;20223;-81
2022/04/22 00:54:03;;;;;;;7.27;6.53;;;;;;;13.10;48.75;97567.91;7034103;28;20208;-81
2022/04/22 00:57:26;;;;;;;10.40;6.93;;;;;;;12.70;49.95;97565.41;7034368;28;20288;-81
2022/04/22 01:00:48;;;;;;;8.83;7.23;;;;;;;12.26;51.25;97568.22;7034105;28;20304;-81
2022/04/22 01:11:32;;;;;;;8.17;7.30;;;;;;;12.17;52.09;97572.41;7033730;28;20231;-81
2022/04/22 01:14:55;;;;;;;10.37;7.73;;;;;;;12.53;51.39;97563.81;7033624;28;20191;-81
2022/04/22 01:18:16;;;;;;;9.67;7.80;;;;;;;12.37;51.27;97532.19;7033353;28;20237;-81
2022/04/22 01:21:39;;;;;;;13.70;8.00;;;;;;;12.07;51.93;97535.25;7034264;28;20223;-81
2022/04/22 01:25:03;;;;;;;9.03;7.97;;;;;;;12.79;50.48;97547.69;7033908;28;20208;-80
2022/04/22 01:28:24;;;;;;;9.07;7.47;;;;;;;12.45;51.26;97534.50;7033445;28;20377;-81
2022/04/22 01:31:47;;;;;;;9.07;8.17;;;;;;;12.19;52.25;97538.69;7034105;28;20223;-80
2022/04/22 01:35:09;;;;;;;7.73;7.03;;;;;;;12.20;52.19;97540.31;7033801;28;20215;-80
2022/04/22 01:38:32;;;;;;;7.73;6.93;;;;;;;12.25;52.03;97542.28;7033565;28;20265;-81
2022/04/22 01:41:55;;;;;;;10.70;8.50;;;;;;;12.71;51.05;97526.50;7033568;28;20325;-81
2022/04/22 01:45:16;;;;;;;10.47;8.77;;;;;;;12.21;52.07;97533.84;7034119;28;20206;-81
2022/04/22 01:48:38;;;;;;;10.97;8.53;;;;;;;12.72;50.73;97516.50;7032408;28;20230;-80
2022/04/22 01:52:00;;;;;;;8.93;7.20;;;;;;;12.94;49.84;97528.16;7033486;28;20227;-81
2022/04/22 01:55:23;;;;;;;8.53;7.60;;;;;;;12.80;49.97;97508.75;7033696;28;20213;-81
2022/04/22 01:58:45;;;;;;;8.50;7.67;;;;;;;13.11;49.35;97502.69;7033483;28;20249;-81
2022/04/22 02:02:06;;;;;;;9.03;7.70;;;;;;;12.70;50.30;97507.81;7034209;28;20239;-81
2022/04/22 02:05:28;;;;;;;8.00;7.20;;;;;;;12.57;50.23;97503.56;7033991;28;20202;-80
2022/04/22 02:08:49;;;;;;;8.83;7.90;;;;;;;12.10;51.93;97504.22;7033420;28;20212;-80
2022/04/22 02:12:12;;;;;;;8.57;7.63;;;;;;;12.73;50.14;97502.72;7033949;28;20227;-81
2022/04/22 02:15:34;;;;;;;10.33;8.33;;;;;;;12.72;50.19;97516.50;7032254;28;20214;-81
2022/04/22 02:18:57;;;;;;;9.83;7.93;;;;;;;12.50;50.98;97500.22;7033205;28;20237;-81
2022/04/22 02:22:18;;;;;;;9.33;7.80;;;;;;;12.56;50.72;97501.16;7034297;28;20231;-81
2022/04/22 02:25:40;;;;;;;9.23;8.27;;;;;;;12.65;50.36;97497.75;7034126;28;20206;-83
2022/04/22 02:29:03;;;;;;;8.83;7.83;;;;;;;12.54;50.79;97495.16;7034689;28;20205;-80
2022/04/22 02:32:24;;;;;;;8.70;7.80;;;;;;;12.66;50.64;97488.56;7035897;28;20343;-80
2022/04/22 02:35:46;;;;;;;10.77;8.40;;;;;;;12.65;50.56;97486.94;7048775;28;20205;-84
2022/04/22 02:39:07;;;;;;;13.40;8.57;;;;;;;12.84;49.33;97482.88;7049012;28;20235;-81
2022/04/22 02:46:09;;;;;;;9.10;7.60;;;;;;;12.65;49.43;97478.84;7030055;28;20202;-81
2022/04/22 02:49:31;;;;;;;10.07;8.37;;;;;;;12.40;50.26;97477.66;7031666;28;20479;-81
2022/04/22 02:52:52;;;;;;;9.47;8.43;;;;;;;11.67;50.92;97393.31;7031086;28;20310;-81
2022/04/22 02:56:14;;;;;;;16.10;11.37;;;;;;;12.65;49.66;97470.72;7030713;28;20245;-81
2022/04/22 02:59:37;;;;;;;10.70;8.83;;;;;;;12.43;49.94;97466.34;7030860;28;20286;-81
2022/04/22 03:03:00;;;;;;;12.87;10.10;;;;;;;12.00;50.69;97466.22;7031639;28;20256;-79
2022/04/22 03:06:24;;;;;;;10.13;9.03;;;;;;;12.37;50.53;97457.34;7030883;28;20776;-79
2022/04/22 03:09:46;;;;;;;10.77;8.97;;;;;;;11.75;51.36;97457.72;7031896;28;20296;-79
2022/04/22 03:13:08;;;;;;;12.10;9.70;;;;;;;12.30;50.51;97472.09;7031684;28;20214;-79
2022/04/22 03:16:30;;;;;;;11.80;9.13;;;;;;;12.05;50.71;97471.72;7031337;28;20225;-80
2022/04/22 03:19:53;;;;;;;12.53;10.23;;;;;;;11.06;53.48;97464.28;7031594;28;20416;-79
2022/04/22 03:23:15;;;;;;;11.23;9.77;;;;;;;10.67;55.13;97442.72;7031652;28;20684;-79
2022/04/22 03:26:36;;;;;;;12.83;10.50;;;;;;;11.47;53.48;97447.78;7030474;28;20623;-79
2022/04/22 03:29:58;;;;;;;12.80;10.00;;;;;;;11.94;51.71;97459.13;7031659;28;20229;-79
2022/04/22 03:33:20;;;;;;;11.60;10.17;;;;;;;11.35;52.49;97438.09;7031448;28;20207;-80
2022/04/22 03:36:43;;;;;;;13.00;10.50;;;;;;;11.83;52.00;97470.81;7030793;28;20317;-80
2022/04/22 03:40:06;;;;;;;11.70;9.93;;;;;;;11.91;51.40;97468.53;7031425;28;20821;-80
2022/04/22 03:43:27;;;;;;;21.53;10.60;;;;;;;11.88;51.29;97468.19;7031008;28;20212;-79
2022/04/22 03:46:49;;;;;;;13.57;10.90;;;;;;;11.09;52.45;97461.09;7029529;28;20689;-80
2022/04/22 03:50:10;;;;;;;16.53;11.60;;;;;;;11.29;53.16;97464.19;7032991;28;20281;-81
2022/04/22 03:53:36;;;;;;;13.50;10.97;;;;;;;11.38;52.83;97462.72;7036356;28;20344;-80
2022/04/22 04:00:36;;;;;;;15.27;12.20;;;;;;;11.05;52.57;97451.03;7035588;28;20225;-81
2022/04/22 04:03:58;;;;;;;16.53;12.70;;;;;;;10.75;53.48;97467.41;7035317;28;20284;-81
2022/04/22 04:07:20;;;;;;;16.90;12.63;;;;;;;10.89;53.64;97455.31;7034773;28;20289;-84
2022/04/22 04:18:01;;;;;;;14.93;12.77;;;;;;;10.51;54.99;97446.97;7035022;28;20232;-83
2022/04/22 04:25:02;;;;;;;16.73;12.23;;;;;;;11.07;53.55;97457.00;7028263;28;20193;-83
2022/04/22 04:28:27;;;;;;;18.47;13.03;;;;;;;10.81;53.08;97450.28;7007221;28;20234;-83
2022/04/22 04:31:48;;;;;;;14.50;11.50;;;;;;;11.11;52.78;97460.84;7029530;28;20221;-83
2022/04/22 04:35:10;;;;;;;16.20;11.97;;;;;;;11.24;51.56;97455.16;7034825;28;20197;-83
2022/04/22 04:38:32;;;;;;;14.87;11.53;;;;;;;10.64;51.89;97429.72;7031435;28;20310;-83
2022/04/22 04:41:53;;;;;;;18.73;14.43;;;;;;;11.14;51.48;97468.44;7034791;28;20257;-83
2022/04/22 04:45:17;;;;;;;15.30;11.80;;;;;;;11.00;51.32;97448.22;7029357;28;20205;-83
2022/04/22 04:48:39;;;;;;;19.67;14.60;;;;;;;10.27;53.34;97439.19;7018557;28;20204;-83
2022/04/22 04:52:00;;;;;;;18.37;13.73;;;;;;;10.34;53.99;97435.28;7040098;28;20225;-82
2022/04/22 04:55:22;;;;;;;19.30;14.63;;;;;;;10.28;53.00;97400.41;7025093;28;20209;-84
2022/04/22 04:58:44;;;;;;;16.13;13.23;;;;;;;10.55;52.54;97420.38;7037030;28;20634;-83
2022/04/22 05:02:07;;;;;;;15.60;12.83;;;;;;;10.86;51.53;97465.75;7024817;28;20225;-82
2022/04/22 05:05:32;;;;;;;15.10;12.90;;;;;;;9.87;53.83;97449.78;7029677;28;20206;-84
2022/04/22 05:08:54;;;;;;;16.13;12.63;;;;;;;10.61;53.83;97459.84;7031135;28;20220;-83
2022/04/22 05:12:16;;;;;;;18.57;13.40;;;;;;;10.52;53.10;97461.28;7020312;28;20221;-83
2022/04/22 05:15:39;;;;;;;16.20;12.00;;;;;;;10.89;52.47;97452.63;7027541;28;20205;-83
2022/04/22 05:19:02;;;;;;;23.23;13.77;;;;;;;10.23;52.98;97452.31;7026228;28;20602;-83
2022/04/22 05:22:23;;;;;;;17.70;13.30;;;;;;;10.36;54.00;97470.91;7022848;28;20764;-84
2022/04/22 05:25:45;;;;;;;20.80;14.50;;;;;;;10.72;52.68;97459.81;7028782;28;20197;-84
2022/04/22 05:32:36;;;;;;;19.63;14.60;;;;;;;10.95;52.94;97462.44;7028605;28;20210;-85
2022/04/22 05:32:51;;;;;;;17.73;13.57;;;;;;;10.61;53.24;97428.31;7033949;28;20218;-85
2022/04/22 05:36:14;;;;;;;16.87;13.53;;;;;;;11.59;52.16;97442.34;7013487;28;20216;-79
2022/04/22 05:39:36;;;;;;;15.53;13.17;;;;;;;11.90;50.59;97463.38;7027011;28;20590;-84
2022/04/22 05:42:58;;;;;;;15.23;12.07;;;;;;;12.51;48.23;97439.69;7020090;28;20210;-86
2022/04/22 05:46:19;;;;;;;18.90;13.83;;;;;;;11.79;51.09;97459.69;7039887;28;20210;-86
2022/04/22 05:49:41;;;;;;;17.67;13.63;;;;;;;11.96;50.18;97435.38;7038914;28;20253;-81
2022/04/22 05:53:04;;;;;;;17.43;13.70;;;;;;;11.77;52.08;97451.03;7032778;28;20207;-83
2022/04/22 05:56:26;;;;;;;15.07;12.57;;;;;;;12.12;49.68;97377.81;7033461;28;20709;-83
2022/04/22 05:59:48;;;;;;;15.60;12.57;;;;;;;12.17;51.40;97448.13;7034155;28;20596;-84
2022/04/22 06:03:10;;;;;;;19.40;13.20;;;;;;;12.55;50.61;97448.13;7025229;28;20207;-80
2022/04/22 06:06:31;;;;;;;15.30;12.30;;;;;;;12.27;51.43;97438.28;7029083;28;20716;-81
2022/04/22 06:13:33;;;;;;;14.07;12.33;;;;;;;13.19;49.61;97447.31;7022500;28;20196;-80
2022/04/22 06:16:55;;;;;;;13.60;12.20;;;;;;;13.22;49.15;97434.09;7033269;28;20667;-81
2022/04/22 06:20:17;;;;;;;19.57;13.67;;;;;;;13.85;48.97;97409.75;7033193;28;20708;-79
2022/04/22 06:23:38;;;;;;;18.33;14.07;;;;;;;13.92;48.40;97428.50;7018240;28;20205;-80
2022/04/22 06:27:01;;;;;;;18.63;14.27;;;;;;;14.35;47.37;97436.44;7031426;28;20578;-80
2022/04/22 06:30:24;;;;;;;17.30;14.13;;;;;;;14.71;46.96;97425.53;7031676;28;20225;-80
2022/04/22 06:33:46;;;;;;;20.93;15.13;;;;;;;15.40;46.01;97420.59;7030636;28;20302;-81
2022/04/22 06:37:11;;;;;;;20.20;14.87;;;;;;;15.29;45.18;97425.16;7032117;28;20221;-79
2022/04/22 06:47:53;;;;;;;18.50;14.50;;;;;;;16.71;42.47;97401.22;7022746;28;20197;-79
2022/04/22 06:51:17;;;;;;;17.93;14.53;;;;;;;17.35;40.41;97417.50;7033313;28;20298;-79
2022/04/22 06:54:39;;;;;;;18.13;16.03;;;;;;;18.00;38.48;97408.88;7032415;28;20209;-78
2022/04/22 06:58:01;;;;;;;16.33;14.53;;;;;;;17.57;39.52;97382.53;7015748;28;20225;-77
2022/04/22 07:01:25;;;;;;;16.67;14.80;;;;;;;17.98;39.08;97397.47;7028341;28;20592;-80
2022/04/22 07:04:47;;;;;;;17.93;14.17;;;;;;;18.39;38.09;97404.19;7019565;28;20201;-79
2022/04/22 07:08:13;;;;;;;21.00;15.23;;;;;;;17.63;40.08;97398.53;7024903;28;20201;-80
2022/04/22 07:11:35;;;;;;;18.43;16.40;;;;;;;16.83;41.55;97406.34;7034421;28;20221;-78
2022/04/22 07:15:03;;;;;;;18.83;16.17;;;;;;;16.21;43.12;97405.94;7022323;28;20221;-79
2022/04/22 07:18:27;;;;;;;17.57;15.37;;;;;;;18.03;39.82;97381.84;7004159;28;20237;-79
2022/04/22 07:21:49;;;;;;;18.87;16.40;;;;;;;17.36;41.20;97394.63;7012460;28;20294;-79
2022/04/22 07:25:11;;;;;;;18.57;16.67;;;;;;;16.77;41.58;97400.09;7017614;28;20236;-79
2022/04/22 07:28:33;;;;;;;19.30;16.83;;;;;;;16.96;41.99;97390.22;7018993;28;20204;-78
2022/04/22 07:31:55;;;;;;;19.60;16.27;;;;;;;17.64;41.47;97399.38;7025758;28;20221;-79
2022/04/22 07:35:21;;;;;;;18.50;15.97;;;;;;;18.69;37.69;97388.28;7030733;28;20209;-79
2022/04/22 07:38:44;;;;;;;17.20;14.83;;;;;;;18.77;38.10;97382.19;7022578;28;20215;-78
2022/04/22 07:42:08;;;;;;;18.17;15.40;;;;;;;18.10;39.02;97389.72;7031956;28;20223;-79
2022/04/22 07:49:09;;;;;;;17.53;15.57;;;;;;;17.95;41.02;97390.66;7031006;28;20198;-79
2022/04/22 07:52:33;;;;;;;18.00;15.70;;;;;;;17.23;41.81;97382.44;7031219;28;20298;-79
2022/04/22 07:55:55;;;;;;;19.07;16.83;;;;;;;17.41;40.99;97370.94;7030460;28;20680;-79
2022/04/22 07:59:16;;;;;;;16.83;15.03;;;;;;;17.60;40.31;97362.88;7023875;28;20227;-78
2022/04/22 08:02:40;;;;;;;17.73;15.83;;;;;;;18.01;40.09;97366.88;7029688;28;20251;-79
2022/04/22 08:06:02;;;;;;;16.53;14.20;;;;;;;18.81;37.81;97357.84;7019984;28;20196;-79
2022/04/22 08:09:25;;;;;;;17.00;15.30;;;;;;;17.26;41.26;97353.81;7014796;28;20687;-78
2022/04/22 08:12:47;;;;;;;17.47;14.80;;;;;;;17.82;40.76;97357.78;7015834;28;20203;-78
2022/04/22 08:16:09;;;;;;;15.37;13.77;;;;;;;19.56;36.63;97351.31;7021029;28;20670;-79
2022/04/22 08:19:30;;;;;;;16.37;14.67;;;;;;;19.22;37.15;97350.78;7023295;28;20232;-78
2022/04/22 08:22:52;;;;;;;17.23;14.73;;;;;;;19.32;36.85;97345.97;7015711;28;20205;-78
2022/04/22 08:26:15;;;;;;;15.93;13.53;;;;;;;20.55;35.59;97353.44;7002801;28;20285;-79
2022/04/22 08:29:37;;;;;;;14.73;13.30;;;;;;;20.17;35.22;97328.13;7002685;28;20636;-78
2022/04/22 08:33:01;;;;;;;15.63;14.03;;;;;;;19.62;36.36;97320.88;7002195;28;20277;-78
2022/04/22 08:36:22;;;;;;;16.30;14.60;;;;;;;20.13;35.74;97348.22;7006491;28;20205;-77
2022/04/22 08:39:44;;;;;;;15.50;13.63;;;;;;;21.13;34.90;97336.09;7035446;28;20287;-78
2022/04/22 08:43:08;;;;;;;14.50;12.90;;;;;;;19.95;36.32;97336.19;7033800;28;20228;-81
2022/04/22 08:50:13;;;;;;;13.87;12.47;;;;;;;20.77;33.99;97330.50;7035933;28;20225;-79
2022/04/22 08:53:35;;;;;;;15.13;13.73;;;;;;;20.15;35.35;97332.28;7033485;28;20291;-78
2022/04/22 08:56:57;;;;;;;15.13;13.53;;;;;;;20.23;36.18;97282.34;7028552;28;20209;-78
2022/04/22 09:00:22;;;;;;;17.10;11.97;;;;;;;21.38;33.64;97321.78;7021194;28;20231;-78
2022/04/22 09:03:43;;;;;;;14.27;12.43;;;;;;;21.14;34.36;97313.81;7034862;28;20227;-77
2022/04/22 09:07:05;;;;;;;13.37;12.10;;;;;;;20.99;33.78;97316.09;7034551;28;20784;-78
2022/04/22 09:10:27;;;;;;;14.67;13.20;;;;;;;20.48;35.11;97301.81;7009225;28;20221;-78
2022/04/22 09:13:49;;;;;;;12.77;11.47;;;;;;;19.88;36.08;97321.28;7019435;28;20236;-78
2022/04/22 09:17:14;;;;;;;12.93;11.50;;;;;;;19.74;35.92;97304.81;7034379;28;20610;-78
2022/04/22 09:20:36;;;;;;;14.77;12.07;;;;;;;20.25;35.49;97293.78;7034810;28;20231;-78
2022/04/22 09:23:57;;;;;;;12.13;10.83;;;;;;;19.92;36.04;97262.13;7026535;28;20618;-75
2022/04/22 09:27:20;;;;;;;12.63;10.93;;;;;;;19.10;37.56;97293.78;7003693;28;20273;-78
2022/04/22 09:30:42;;;;;;;12.37;10.47;;;;;;;21.07;34.78;97287.97;7013595;28;20718;-78
2022/04/22 09:34:04;;;;;;;11.93;10.73;;;;;;;21.08;33.36;97284.91;7010107;28;20232;-77
2022/04/22 09:44:56;;;;;;;12.37;10.80;;;;;;;22.10;31.26;97261.00;6904070;28;20256;-80
2022/04/22 09:48:20;;;;;;;9.83;8.87;;;;;;;22.54;31.60;97262.81;7008637;28;20302;-79
2022/04/22 09:51:43;;;;;;;10.23;9.13;;;;;;;23.04;31.00;97256.59;7020090;28;20227;-80
2022/04/22 09:55:07;;;;;;;10.40;8.63;;;;;;;21.92;32.61;97259.28;7031112;28;20195;-78
2022/04/22 09:58:28;;;;;;;8.93;8.13;;;;;;;23.56;30.69;97250.00;7017198;28;20781;-77
2022/04/22 10:01:50;;;;;;;12.80;8.70;;;;;;;24.23;29.68;97250.16;7025128;28;20249;-79
2022/04/22 10:05:12;;;;;;;8.93;8.13;;;;;;;23.80;29.65;97249.47;7027390;28;20196;-78
2022/04/22 10:08:37;;;;;;;9.90;8.23;;;;;;;22.82;30.28;97264.97;7034226;28;20206;-78
2022/04/22 10:11:59;;;;;;;10.70;9.57;;;;;;;22.59;31.56;97263.47;7033799;28;20286;-79
2022/04/22 10:15:21;;;;;;;9.60;8.70;;;;;;;22.93;30.59;97240.72;7034615;28;20197;-79
2022/04/22 10:18:43;;;;;;;9.40;8.60;;;;;;;21.93;32.06;97238.94;7034828;28;20227;-79
2022/04/22 10:22:07;;;;;;;10.60;9.50;;;;;;;22.48;32.42;97248.41;7033082;28;20224;-79
2022/04/22 10:25:31;;;;;;;10.90;9.80;;;;;;;21.55;32.79;97250.63;7013916;28;20642;-78
2022/04/22 10:28:53;;;;;;;9.27;8.43;;;;;;;22.16;32.79;97236.94;7023133;28;20211;-79
2022/04/22 10:32:17;;;;;;;11.10;9.80;;;;;;;21.10;33.85;97238.03;7029826;28;20275;-78
2022/04/22 10:35:40;;;;;;;9.07;8.27;;;;;;;22.02;32.80;97237.03;7005380;28;20368;-76
2022/04/22 10:39:02;;;;;;;9.43;8.53;;;;;;;22.02;32.97;97234.28;7018986;28;20232;-79
2022/04/22 10:42:33;;;;;;;9.00;8.13;;;;;;;23.70;30.57;97247.03;7033086;28;20699;-79
2022/04/22 10:49:36;;;;;;;9.93;8.50;;;;;;;21.14;33.80;97225.31;7005240;28;20195;-80
2022/04/22 10:53:05;;;;;;;10.77;9.67;;;;;;;21.11;33.65;97247.06;7005123;28;20211;-78
2022/04/22 10:56:34;;;;;;;10.97;9.57;;;;;;;20.95;33.68;97238.38;7003384;28;20639;-81
2022/04/22 11:00:05;;;;;;;10.03;9.13;;;;;;;21.72;33.36;97231.56;7002943;28;20581;-80
2022/04/22 11:03:34;;;;;;;9.40;8.50;;;;;;;22.00;31.49;97222.00;7003238;28;20212;-80
2022/04/22 11:06:57;;;;;;;11.47;9.20;;;;;;;22.91;30.40;97175.09;7014461;28;20211;-80
2022/04/22 11:10:19;;;;;;;9.80;8.90;;;;;;;23.33;30.59;97196.31;7033783;28;20268;-79
2022/04/22 11:13:43;;;;;;;9.10;8.30;;;;;;;24.00;29.01;97199.22;7038321;28;20212;-80
2022/04/22 11:17:33;;;;;;;8.70;7.80;;;;;;;23.44;29.83;97197.59;7045110;28;20207;-77
2022/04/22 11:21:00;;;;;;;10.90;9.90;;;;;;;22.47;31.73;97218.50;7034330;28;20240;-80
2022/04/22 11:24:23;;;;;;;10.10;9.20;;;;;;;22.89;30.15;97215.84;7022611;28;20646;-80
2022/04/22 11:27:44;;;;;;;10.77;8.33;;;;;;;23.21;30.54;97181.59;7034768;28;20205;-81
2022/04/22 11:31:08;;;;;;;8.60;7.83;;;;;;;22.91;31.04;97210.84;7034594;28;20231;-79
2022/04/22 11:35:01;;;;;;;10.20;9.23;;;;;;;22.35;30.77;97207.28;7032117;28;20201;-80
2022/04/22 11:38:23;;;;;;;10.30;9.40;;;;;;;22.80;30.61;97212.28;7040132;28;20209;-78
2022/04/22 11:41:53;;;;;;;10.73;9.20;;;;;;;23.05;30.01;97205.97;7045998;28;20249;-80
2022/04/22 11:45:15;;;;;;;8.93;8.07;;;;;;;23.02;30.68;97201.13;7019099;28;20662;-82
2022/04/22 11:48:45;;;;;;;8.93;8.10;;;;;;;24.70;28.41;97202.13;7006746;28;20197;-79
2022/04/22 11:52:08;;;;;;;11.03;8.17;;;;;;;23.52;29.63;97199.50;7034375;28;20776;-81
2022/04/22 11:55:30;;;;;;;9.80;8.90;;;;;;;24.96;27.07;97198.06;7016477;28;20226;-82
2022/04/22 11:58:53;;;;;;;8.97;7.63;;;;;;;24.32;28.67;97195.84;7013429;28;20241;-81
2022/04/22 12:05:53;;;;;;;8.60;7.80;;;;;;;23.75;28.63;97192.66;7023560;28;20202;-80
2022/04/22 12:09:16;;;;;;;9.03;7.77;;;;;;;23.94;28.45;97197.78;7031268;28;20202;-81
2022/04/22 12:12:47;;;;;;;10.77;8.57;;;;;;;23.91;28.40;97187.44;7037436;28;20228;-82
2022/04/22 12:16:09;;;;;;;8.70;7.40;;;;;;;24.03;27.84;97188.38;7036567;28;20534;-82
2022/04/22 12:19:31;;;;;;;9.57;8.07;;;;;;;23.97;28.00;97195.22;7023970;28;20221;-79
2022/04/22 12:22:55;;;;;;;8.27;7.50;;;;;;;23.00;30.17;97192.41;7021467;28;20254;-81
2022/04/22 12:26:20;;;;;;;9.33;8.17;;;;;;;24.02;27.43;97183.19;7034804;28;20585;-82
2022/04/22 12:29:42;;;;;;;7.53;6.83;;;;;;;24.67;28.21;97170.53;7032637;28;20228;-80
2022/04/22 12:33:04;;;;;;;7.80;7.00;;;;;;;23.61;29.30;97166.47;7033274;28;20201;-82
2022/04/22 12:36:26;;;;;;;7.67;6.97;;;;;;;24.71;27.67;97160.47;7025598;28;20265;-84
2022/04/22 12:39:49;;;;;;;8.50;7.70;;;;;;;25.18;26.83;97163.84;7009717;28;20576;-82
2022/04/22 12:43:27;;;;;;;7.87;7.03;;;;;;;25.01;27.22;97155.72;7010870;28;20189;-82
2022/04/22 12:54:08;;;;;;;8.07;7.13;;;;;;;24.83;27.40;97152.25;7027936;28;20193;-81
2022/04/22 12:57:29;;;;;;;8.10;7.30;;;;;;;24.52;26.88;97151.81;7031247;28;20205;-82
2022/04/22 13:00:53;;;;;;;7.67;7.07;;;;;;;24.55;27.13;97155.84;7027332;28;20693;-82
2022/04/22 13:04:20;;;;;;;8.27;7.07;;;;;;;23.86;28.30;97147.13;7036984;28;20206;-81
2022/04/22 13:07:45;;;;;;;9.17;7.57;;;;;;;22.21;30.53;97169.00;7036542;28;20210;-81
2022/04/22 13:11:08;;;;;;;7.83;7.13;;;;;;;22.94;29.30;97160.72;7036186;28;20291;-84
2022/04/22 13:14:29;;;;;;;8.07;7.37;;;;;;;24.02;27.97;97158.41;7034490;28;20214;-83
2022/04/22 13:17:53;;;;;;;7.87;7.03;;;;;;;25.10;26.86;97157.25;7008003;28;20224;-84
2022/04/22 13:21:15;;;;;;;9.40;8.60;;;;;;;23.65;28.10;97167.44;7006730;28;20242;-86
2022/04/22 13:24:37;;;;;;;9.10;8.20;;;;;;;23.02;29.06;97150.84;7017341;28;20582;-82
2022/04/22 13:27:59;;;;;;;8.13;7.43;;;;;;;24.51;26.52;97144.69;7028886;28;20686;-82
2022/04/22 13:31:20;;;;;;;7.50;6.77;;;;;;;25.19;25.82;97127.59;7036141;28;20236;-82
2022/04/22 13:34:43;;;;;;;8.87;8.00;;;;;;;24.95;26.37;97137.75;7036334;28;20254;-82
2022/04/22 13:38:05;;;;;;;8.80;7.90;;;;;;;24.72;27.13;97103.41;7035962;28;20679;-81
2022/04/22 13:41:26;;;;;;;11.73;7.50;;;;;;;24.29;27.99;97127.63;7032036;28;20608;-84
2022/04/22 13:52:26;;;;;;;8.23;7.50;;;;;;;25.01;26.26;97130.88;6979471;28;20221;-81
2022/04/22 13:55:48;;;;;;;8.60;7.80;;;;;;;25.17;26.34;97134.59;7007246;28;20307;-80
2022/04/22 13:59:09;;;;;;;8.73;7.53;;;;;;;24.02;27.15;97117.91;7013169;28;20244;-79
2022/04/22 14:02:31;;;;;;;7.90;7.10;;;;;;;23.05;29.33;97130.94;7014226;28;20316;-79
2022/04/22 14:05:53;;;;;;;10.53;7.03;;;;;;;24.65;27.64;97123.22;7006600;28;20210;-80
2022/04/22 14:09:16;;;;;;;7.93;7.13;;;;;;;24.51;25.69;97119.91;7006468;28;20675;-81
2022/04/22 14:12:37;;;;;;;7.60;6.90;;;;;;;23.53;27.34;97126.84;7006242;28;20324;-79
2022/04/22 14:15:59;;;;;;;10.73;7.73;;;;;;;24.76;26.46;97134.63;7005131;28;20208;-81
2022/04/22 14:19:22;;;;;;;7.93;7.13;;;;;;;24.64;26.13;97109.75;7021689;28;20233;-81
2022/04/22 14:22:43;;;;;;;7.57;6.87;;;;;;;24.63;26.09;97138.47;7035432;28;20291;-79
2022/04/22 14:26:07;;;;;;;7.03;6.40;;;;;;;25.04;25.60;97122.75;7034555;28;20699;-80
2022/04/22 14:29:29;;;;;;;7.60;6.80;;;;;;;24.38;26.31;97145.75;7032149;28;20268;-81
2022/04/22 14:32:50;;;;;;;7.90;6.90;;;;;;;24.28;26.38;97129.59;7023401;28;20204;-80
2022/04/22 14:36:13;;;;;;;7.60;6.10;;;;;;;25.14;25.92;97119.53;7035074;28;20652;-80
2022/04/22 14:39:34;;;;;;;6.70;6.00;;;;;;;25.27;25.85;97112.97;7036128;28;20589;-79
2022/04/22 14:42:57;;;;;;;10.90;6.50;;;;;;;25.44;24.28;97046.56;7023011;28;20213;-80
2022/04/22 14:46:19;;;;;;;6.43;5.83;;;;;;;25.60;25.39;97110.19;7004167;28;20221;-80
2022/04/22 14:49:41;;;;;;;6.07;5.50;;;;;;;25.02;24.56;97104.91;7013316;28;20199;-80
2022/04/22 14:53:03;;;;;;;6.23;5.63;;;;;;;25.04;24.89;97108.94;7028825;28;20197;-80
2022/04/22 14:56:24;;;;;;;7.87;6.70;;;;;;;24.33;25.74;97126.66;7023529;28;20201;-79
2022/04/22 14:59:47;;;;;;;7.37;6.23;;;;;;;25.03;24.86;97118.38;7025167;28;20745;-80
2022/04/22 15:03:12;;;;;;;6.03;5.40;;;;;;;25.32;25.17;97109.97;7032746;28;20275;-80
2022/04/22 15:06:35;;;;;;;7.27;6.57;;;;;;;25.19;25.56;97110.28;7022673;28;20196;-80
2022/04/22 15:09:56;;;;;;;7.67;6.33;;;;;;;24.77;25.87;97126.03;7019936;28;20234;-79
2022/04/22 15:13:20;;;;;;;6.87;6.27;;;;;;;24.23;26.87;97118.78;7014013;28;20211;-79
2022/04/22 15:16:43;;;;;;;7.30;6.60;;;;;;;23.84;27.65;97129.31;7026510;28;20340;-79
2022/04/22 15:27:24;;;;;;;6.13;5.53;;;;;;;25.31;25.18;97124.94;7028451;28;20201;-79
2022/04/22 15:31:09;;;;;;;7.73;5.70;;;;;;;25.17;24.43;97129.91;7031912;28;20219;-79
2022/04/22 15:34:32;;;;;;;6.30;5.80;;;;;;;24.18;26.08;97126.44;7032765;28;20205;-79
2022/04/22 15:37:54;;;;;;;6.83;6.07;;;;;;;23.79;26.90;97135.78;7031920;28;20523;-79
2022/04/22 15:41:17;;;;;;;5.20;4.73;;;;;;;24.31;26.56;97126.16;7032169;28;20235;-79
2022/04/22 15:44:44;;;;;;;5.93;5.33;;;;;;;23.92;26.77;97134.00;7032338;28;20206;-79
2022/04/22 15:48:07;;;;;;;6.43;4.93;;;;;;;23.73;27.38;97120.59;7038221;28;20245;-79
2022/04/22 15:51:31;;;;;;;6.00;4.77;;;;;;;24.02;26.76;97128.91;7039258;28;20270;-79
2022/04/22 15:54:53;;;;;;;6.13;5.23;;;;;;;24.73;25.93;97122.34;7038502;28;20201;-79
2022/04/22 15:58:17;;;;;;;6.40;4.80;;;;;;;24.99;25.65;97127.63;7037983;28;20216;-79
2022/04/22 16:01:41;;;;;;;6.07;5.27;;;;;;;25.59;24.01;97125.94;7038893;28;20236;-79
2022/04/22 16:05:04;;;;;;;7.13;5.00;;;;;;;24.99;24.36;97136.72;7043697;28;20259;-80
2022/04/22 16:08:27;;;;;;;6.93;5.37;;;;;;;24.01;25.97;97134.78;7049114;28;20197;-79
2022/04/22 16:15:28;;;;;;;6.67;5.70;;;;;;;23.97;26.17;97140.16;7038295;28;20205;-79
2022/04/22 16:18:50;;;;;;;6.47;5.70;;;;;;;23.87;26.66;97132.25;7036414;28;20213;-79
2022/04/22 16:22:13;;;;;;;6.83;4.67;;;;;;;24.40;26.80;97131.63;7036321;28;20260;-80
2022/04/22 16:25:35;;;;;;;6.00;5.40;;;;;;;24.11;25.70;97131.63;7026567;28;20237;-80
2022/04/22 16:28:58;;;;;;;5.93;4.97;;;;;;;24.34;26.26;97070.41;7034193;28;20213;-80
2022/04/22 16:32:19;;;;;;;6.13;5.17;;;;;;;23.82;26.51;97137.09;7035239;28;20231;-80
2022/04/22 16:35:41;;;;;;;5.83;5.30;;;;;;;24.44;26.19;97140.84;7029876;28;20209;-79
2022/04/22 16:39:03;;;;;;;8.20;5.67;;;;;;;23.40;27.38;97129.78;7035254;28;20664;-79
2022/04/22 16:42:26;;;;;;;9.10;5.50;;;;;;;23.58;27.21;97148.66;7035828;28;20239;-78
2022/04/22 16:45:49;;;;;;;8.40;4.93;;;;;;;23.66;28.56;97142.31;7031333;28;20218;-79
2022/04/22 16:49:14;;;;;;;7.37;5.53;;;;;;;23.60;28.15;97149.13;7008735;28;20243;-80
2022/04/22 16:52:36;;;;;;;5.60;4.80;;;;;;;23.87;27.87;97154.28;7008369;28;20226;-83
2022/04/22 16:55:57;;;;;;;5.80;5.20;;;;;;;24.28;27.04;97146.13;7015243;28;20203;-81
2022/04/22 16:59:20;;;;;;;6.13;4.80;;;;;;;24.03;27.51;97146.25;7026463;28;20216;-79
2022/04/22 17:02:44;;;;;;;5.77;5.20;;;;;;;23.78;27.05;97158.16;7022570;28;20575;-80
2022/04/22 17:06:06;;;;;;;4.80;4.40;;;;;;;23.81;27.66;97155.56;7026020;28;20202;-79
2022/04/22 17:09:28;;;;;;;5.33;4.57;;;;;;;24.40;27.23;97150.91;7035085;28;21651;-81